Latest Coastal Weather Observations for Townsville

IDQ60701

Issued at 10:52 am EST Thursday 28 July 2016 (issued every 10 minutes, with the page automatically refreshed every 10 minutes)

About coastal observations | Map of coastal stations | Coastal observations for QLD | Marine services | Other Formats
Station Details ID: 032040 Name: TOWNSVILLE AERO Lat: -19.25 Lon: 146.77 Height: 4.34 m
Data from the previous 72 hours. | See also: Recent months at Townsville
Date/Time
EST
Temp
°C
Wind Pressure Rain since
9am
mm
Weather Cloud Vis
km
Sea
Height
m
Swell
Dir  Spd
kts
Gust
kts
hPa Trend Height
m
Period
s
Dir
28/10:30am 23.1 SSE 11 14 1021.0 - 0.0 - - 10 - - - -
28/10:00am 22.9 S 13 17 1021.2 - 0.0 - - 10 - - - -
28/09:30am 22.1 SSW 14 18 1021.3 - 0.0 - - 10 - - - -
28/09:00am 21.7 S 13 17 1021.1 F 0.0 - - 10 - - - -
28/08:30am 20.9 SSW 10 15 1021.1 - 0.0 - - 10 - - - -
28/08:00am 20.0 SSW 9 12 1020.8 - 0.0 - - 10 - - - -
28/07:30am 19.2 SW 8 9 1020.5 - 0.0 - - 10 - - - -
28/07:00am 17.9 SSW 7 9 1020.2 - 0.0 - - 10 - - - -
28/06:30am 18.2 SW 7 8 1020.0 - 0.0 - Mostly clear 10 - - - -
28/06:00am 18.1 SW 4 6 1019.9 S 0.0 - Mostly clear 10 - - - -
28/05:30am 19.0 SW 5 7 1019.7 - 0.0 - - 10 - - - -
28/05:00am 19.4 SW 7 8 1019.6 - 0.0 - - 10 - - - -
28/04:30am 19.3 WSW 6 8 1019.4 - 0.0 - - 10 - - - -
28/04:00am 19.3 SSW 7 9 1019.2 - 0.0 - - 10 - - - -
28/03:30am 19.5 S 7 8 1019.3 - 0.0 - - 10 - - - -
28/03:00am 20.2 SSW 4 6 1019.5 R 0.0 - - 10 - - - -
28/02:30am 20.2 SSE 5 7 1019.4 - 0.0 - - 10 - - - -
28/02:00am 21.4 SSW 11 16 1019.2 - 0.0 - - 10 - - - -
28/01:30am 21.5 S 10 15 1019.3 - 0.0 - - 10 - - - -
28/01:00am 20.9 SSE 7 10 1019.7 - 0.0 - - 10 - - - -
28/12:30am 21.1 S 7 9 1019.7 - 0.0 - - 10 - - - -
28/12:00am 21.3 S 7 9 1019.6 R 0.0 - - 10 - - - -
 
Date/Time
EST
Temp
°C
Wind Pressure Rain since
9am
mm
Weather Cloud Vis
km
Sea
Height
m
Swell
Dir  Spd
kts
Gust
kts
hPa Trend Height
m
Period
s
Dir
27/11:30pm 21.2 SSW 5 6 1019.6 - 0.0 - Partly cloudy 10 - - - -
27/11:00pm 22.3 SSW 5 6 1019.8 - 0.0 - Partly cloudy 10 - - - -
27/10:30pm 22.5 SE 5 6 1019.9 - 0.0 - Partly cloudy 10 - - - -
27/10:00pm 22.5 SE 5 6 1019.6 - 0.0 - Partly cloudy 10 - - - -
27/09:30pm 22.5 CALM 0 0 1019.4 - 0.0 - Partly cloudy 10 - - - -
27/09:00pm 22.4 ESE 3 4 1019.3 R 0.0 - Mostly cloudy 10 - - - -
27/08:30pm 22.4 E 4 5 1019.0 - 0.0 - Partly cloudy 10 - - - -
27/08:00pm 22.7 SE 4 5 1018.6 - 0.0 - Cloudy 10 - - - -
27/07:30pm 22.2 ENE 5 6 1018.1 - 0.0 - Partly cloudy 10 - - - -
27/07:00pm 22.3 E 5 6 1017.7 - 0.0 - Partly cloudy 10 - - - -
27/06:30pm 22.7 E 6 7 1017.1 - 0.0 - Partly cloudy 10 - - - -
27/06:00pm 23.0 ENE 7 9 1016.8 R 0.0 - - 10 - - - -
27/05:30pm 23.9 NE 7 9 1016.4 - 0.0 - Mostly clear 10 - - - -
27/05:00pm 24.6 ENE 9 12 1016.0 - 0.0 - Mostly clear 10 - - - -
27/04:30pm 24.9 ENE 11 15 1015.8 - 0.0 - Mostly clear 10 - - - -
27/04:00pm 25.2 ENE 13 14 1015.5 - 0.0 - Mostly clear 10 - - - -
27/03:30pm 25.3 ENE 13 15 1015.5 - 0.0 - Mostly clear 10 - - - -
27/03:00pm 25.7 NE 14 17 1015.4 R 0.0 - Partly cloudy 10 - - - -
27/02:30pm 25.3 ENE 12 14 1015.4 - 0.0 - Mostly clear 10 - - - -
27/02:00pm 25.6 ENE 11 13 1015.7 - 0.0 - Mostly clear 10 - - - -
27/01:30pm 26.6 NE 11 14 1016.1 - 0.0 - Mostly clear 10 - - - -
27/01:00pm 26.6 NE 8 10 1016.3 - 0.0 - Mostly clear 10 - - - -
27/12:30pm 26.1 NE 8 9 1016.8 - 0.0 - Mostly clear 10 - - - -
27/12:00pm 26.0 NE 7 10 1017.1 F 0.0 - Mostly clear 10 - - - -
27/11:30am 25.1 NNE 5 7 1017.6 - 0.0 - Mostly clear 10 - - - -
27/11:00am 25.4 NNE 1 4 1018.0 - 0.0 - Mostly clear 10 - - - -
27/10:30am 24.3 NNE 4 6 1018.3 - 0.0 - Mostly clear 10 - - - -
27/10:00am 23.2 NNE 7 9 1018.4 - 0.0 - Mostly clear 10 - - - -
27/09:30am 23.6 SSW 4 8 1018.7 - 0.0 - Mostly clear 10 - - - -
27/09:00am 22.9 WSW 2 6 1018.5 F 0.0 - Mostly clear 10 - - - -
27/08:30am 22.2 S 4 5 1018.4 - 0.0 - Mostly clear 10 - - - -
27/08:00am 21.1 SSW 7 10 1018.2 - 0.0 - Mostly clear 10 - - - -
27/07:30am 20.4 SW 8 10 1018.0 - 0.0 - Mostly clear 10 - - - -
27/07:00am 19.7 SSW 6 8 1017.9 - 0.0 - Mostly clear 10 - - - -
27/06:30am 19.2 SE 5 6 1017.7 - 0.0 - Mostly clear 10 - - - -
27/06:00am 18.7 SSE 4 5 1017.4 R 0.0 - Mostly clear 10 - - - -
27/05:30am 19.4 CALM 0 0 1017.0 - 0.0 - - 10 - - - -
27/05:00am 19.9 CALM 0 0 1016.7 - 0.0 - Partly cloudy 10 - - - -
27/04:48am 19.9 SSW 2 4 1016.5 - 0.0 - Partly cloudy 10 - - - -
27/04:30am 20.1 S 5 8 1016.3 - 0.0 - Partly cloudy 10 - - - -
27/04:22am 20.0 S 6 8 1016.4 - 0.0 - Partly cloudy 10 - - - -
27/04:00am 20.2 SSE 7 8 1016.4 - 0.0 - Partly cloudy 10 - - - -
27/03:30am 19.9 SE 7 8 1016.3 - 0.0 - - 10 - - - -
27/03:00am 20.7 ESE 7 10 1016.2 S 0.0 - - 10 - - - -
27/02:30am 20.3 CALM 0 2 1016.6 - 0.0 - Partly cloudy 10 - - - -
27/02:00am 20.2 SW 4 4 1016.8 - 0.0 - Partly cloudy 10 - - - -
27/01:30am 19.2 SW 4 5 1016.9 - 0.0 - Partly cloudy 10 - - - -
27/01:00am 19.2 CALM 0 0 1017.1 - 0.0 - Partly cloudy 10 - - - -
27/12:30am 20.2 CALM 0 3 1017.0 - 0.0 - - 10 - - - -
27/12:00am 20.8 ESE 5 6 1017.1 R 0.0 - - 10 - - - -
 
Date/Time
EST
Temp
°C
Wind Pressure Rain since
9am
mm
Weather Cloud Vis
km
Sea
Height
m
Swell
Dir  Spd
kts
Gust
kts
hPa Trend Height
m
Period
s
Dir
26/11:30pm 21.1 SE 5 6 1017.0 - 0.0 - - 10 - - - -
26/11:00pm 21.1 ESE 5 5 1017.0 - 0.0 - - 10 - - - -
26/10:30pm 21.4 ESE 4 5 1017.1 - 0.0 - - 10 - - - -
26/10:00pm 21.7 NE 1 4 1016.9 - 0.0 - - 10 - - - -
26/09:30pm 21.6 CALM 0 0 1016.9 - 0.0 - - 10 - - - -
26/09:00pm 22.1 CALM 0 0 1016.8 R 0.0 - Mostly cloudy 10 - - - -
26/08:30pm 22.6 ESE 4 5 1016.7 - 0.0 - Partly cloudy 10 - - - -
26/08:00pm 22.8 E 4 6 1016.4 - 0.0 - Cloudy 10 - - - -
26/07:30pm 22.9 ENE 6 6 1016.1 - 0.0 - Cloudy 10 - - - -
26/07:00pm 23.1 E 4 5 1015.8 - 0.0 - Cloudy 10 - - - -
26/06:30pm 22.9 ENE 7 10 1015.3 - 0.0 - - 10 - - - -
26/06:00pm 23.3 ENE 8 10 1015.1 R 0.0 - Mostly clear 10 - - - -
26/05:30pm 24.1 ENE 8 11 1014.9 - 0.0 - Mostly clear 10 - - - -
26/05:00pm 24.4 ENE 11 13 1014.6 - 0.0 - Mostly clear 10 - - - -
26/04:30pm 25.0 NE 9 12 1014.4 - 0.0 - Mostly clear 10 - - - -
26/04:00pm 24.9 NE 10 12 1014.3 - 0.0 - Mostly clear 10 - - - -
26/03:30pm 25.4 NE 10 13 1014.2 - 0.0 - Mostly clear 10 - - - -
26/03:00pm 26.5 NE 8 11 1014.3 R 0.0 - Mostly cloudy 10 - - - -
26/02:30pm 26.0 NE 10 13 1014.7 - 0.0 - Mostly clear 10 - - - -
26/02:00pm 26.4 NE 10 13 1014.8 - 0.0 - Mostly clear 10 - - - -
26/01:30pm 25.7 NE 10 14 1015.2 - 0.0 - Mostly clear 10 - - - -
26/01:00pm 26.3 NE 10 15 1015.6 - 0.0 - Mostly clear 10 - - - -
26/12:30pm 26.1 ENE 11 14 1016.0 - 0.0 - Mostly clear 10 - - - -
26/12:00pm 25.8 NE 9 12 1016.4 F 0.0 - Mostly clear 10 - - - -
26/11:30am 25.6 SE 6 9 1016.7 - 0.0 - Mostly clear 10 - - - -
26/11:00am 25.1 SE 7 10 1017.2 - 0.0 - Mostly clear 10 - - - -
26/10:30am 24.9 SSE 7 9 1017.6 - 0.0 - Mostly clear 10 - - - -
26/10:00am 23.7 ESE 8 11 1017.8 - 0.0 - Mostly clear 10 - - - -
26/09:30am 23.4 ESE 6 8 1017.8 - 0.0 - Mostly clear 10 - - - -
26/09:00am 23.0 E 4 7 1017.6 R 0.0 - Mostly clear 10 - - - -
26/08:30am 21.8 ESE 4 6 1017.5 - 0.0 - Mostly clear 10 - - - -
26/08:00am 20.8 CALM 0 0 1017.3 - 0.0 - Mostly clear 10 - - - -
26/07:30am 18.8 CALM 0 4 1016.9 - 0.0 - Mostly clear 10 - - - -
26/07:00am 17.9 E 2 3 1016.6 - 0.0 - Mostly clear 10 - - - -
26/06:30am 17.3 S 1 4 1016.3 - 0.0 Fog patches Mostly clear 10 - - - -
26/06:00am 18.6 CALM 0 0 1016.0 F 0.0 - Mostly clear 10 - - - -
26/05:30am 18.8 CALM 0 0 1015.9 - 0.0 - Partly cloudy 10 - - - -
26/05:00am 18.9 CALM 0 3 1015.8 - 0.0 - - 10 - - - -
26/04:30am 19.1 CALM 0 0 1015.8 - 0.0 - Partly cloudy 10 - - - -
26/04:09am 19.3 CALM 0 0 1015.8 - 0.0 - Partly cloudy 10 - - - -
26/04:00am 19.0 CALM 0 0 1015.8 - 0.0 - Partly cloudy 10 - - - -
26/03:30am 18.6 CALM 0 0 1015.8 - 0.0 - Partly cloudy 10 - - - -
26/03:17am 18.4 CALM 0 0 1015.8 - 0.0 - Partly cloudy 10 - - - -
26/03:00am 18.2 CALM 0 0 1015.9 F 0.0 - Cloudy 10 - - - -
26/02:30am 18.1 CALM 0 0 1016.1 - 0.0 - Partly cloudy 10 - - - -
26/02:00am 18.3 CALM 0 0 1016.4 - 0.0 - Partly cloudy 10 - - - -
26/01:30am 17.6 CALM 0 0 1016.5 - 0.0 - - 10 - - - -
26/01:00am 19.1 CALM 0 0 1016.8 - 0.0 - Partly cloudy 10 - - - -
26/12:30am 19.9 CALM 0 0 1016.9 - 0.0 - Partly cloudy 10 - - - -
26/12:00am 20.2 SSW 4 4 1017.2 R 0.0 - Partly cloudy 10 - - - -
 
Date/Time
EST
Temp
°C
Wind Pressure Rain since
9am
mm
Weather Cloud Vis
km
Sea
Height
m
Swell
Dir  Spd
kts
Gust
kts
hPa Trend Height
m
Period
s
Dir
25/11:30pm 19.6 CALM 0 0 1017.2 - 0.0 - Partly cloudy 10 - - - -
25/11:00pm 19.4 CALM 0 0 1017.2 - 0.0 - Partly cloudy 10 - - - -
25/10:30pm 19.7 CALM 0 0 1017.2 - 0.0 - Partly cloudy 10 - - - -
25/10:00pm 20.4 CALM 0 0 1016.8 - 0.0 - - 10 - - - -
25/09:30pm 21.0 CALM 0 0 1016.8 - 0.0 - - 10 - - - -
25/09:00pm 21.7 S 4 5 1016.9 R 0.0 - - 10 - - - -
25/08:30pm 22.0 E 2 6 1016.7 - 0.0 - - 10 - - - -
25/08:00pm 21.8 ENE 4 5 1016.2 - 0.0 - - 10 - - - -
25/07:30pm 21.9 ENE 6 6 1015.9 - 0.0 - - 10 - - - -
25/07:00pm 22.2 ENE 6 7 1015.5 - 0.0 - - 10 - - - -
25/06:30pm 22.5 ENE 6 8 1015.1 - 0.0 - - 10 - - - -
25/06:00pm 23.2 ENE 6 8 1014.9 R 0.0 - - 10 - - - -
25/05:30pm 24.4 ENE 6 8 1014.7 - 0.0 - - 10 - - - -
25/05:00pm 25.5 ENE 8 10 1014.4 - 0.0 - Mostly clear 10 - - - -
25/04:30pm 26.4 ENE 10 11 1014.2 - 0.0 - Mostly clear 10 - - - -
25/04:00pm 27.1 NE 9 10 1013.9 - 0.0 - Mostly clear 10 - - - -
25/03:30pm 27.5 NE 8 10 1013.9 - 0.0 - Mostly clear 10 - - - -
25/03:00pm 27.7 NE 9 10 1014.0 R 0.0 - Mostly clear 10 - - - -
25/02:30pm 27.9 NE 8 10 1014.2 - 0.0 - Mostly clear 10 - - - -
25/02:00pm 27.8 NE 9 11 1014.5 - 0.0 - Mostly clear 10 - - - -
25/01:30pm 27.4 NE 9 12 1014.8 - 0.0 - Mostly clear 10 - - - -
25/01:00pm 28.0 SE 7 11 1015.4 - 0.0 - Mostly clear 10 - - - -
25/12:30pm 27.9 SSE 8 14 1015.8 - 0.0 - - 10 - - - -
25/12:00pm 27.3 SSE 6 9 1016.2 F 0.0 - - 10 - - - -
25/11:30am 27.0 SSE 7 10 1016.6 - 0.0 - - 10 - - - -
25/11:00am 26.6 S 6 8 1017.1 - 0.0 - - 10 - - - -

Other Formats:

Comma delimited format used in spreadsheet applications
http://www.bom.gov.au/fwo/IDQ60701/IDQ60701.94294.axf

JavaScript Object Notation format (JSON) in row-major order
http://www.bom.gov.au/fwo/IDQ60701/IDQ60701.94294.json